createdAt,value
2018-06-28T00:01:34.340Z,50.70
2018-06-28T00:04:03.812Z,50.50
2018-06-28T00:06:32.785Z,50.50
2018-06-28T00:09:01.508Z,50.60
2018-06-28T00:13:58.624Z,51.20
2018-06-28T00:16:27.451Z,51.20
2018-06-28T00:18:56.193Z,51.20
2018-06-28T00:21:24.833Z,51.20
2018-06-28T00:23:53.630Z,51.20
2018-06-28T00:26:22.564Z,51.50
2018-06-28T00:28:51.321Z,51.40
2018-06-28T00:31:20.024Z,51.30
2018-06-28T00:33:48.895Z,51.50
2018-06-28T00:36:17.713Z,51.60
2018-06-28T00:38:46.363Z,51.90
2018-06-28T00:41:15.235Z,51.90
2018-06-28T00:43:44.686Z,51.70
2018-06-28T00:46:13.200Z,51.90
2018-06-28T00:48:41.874Z,51.80
2018-06-28T00:51:10.733Z,52.00
2018-06-28T00:53:39.595Z,52.00
2018-06-28T00:56:08.211Z,52.10
2018-06-28T00:58:36.912Z,52.10
2018-06-28T01:01:05.914Z,52.00
2018-06-28T01:03:34.759Z,52.30
2018-06-28T01:06:03.435Z,52.20
2018-06-28T01:08:32.027Z,52.40
2018-06-28T01:11:00.739Z,52.30
2018-06-28T01:13:29.473Z,52.10
2018-06-28T01:15:58.160Z,52.20
2018-06-28T01:18:26.767Z,52.20
2018-06-28T01:20:55.384Z,52.00
2018-06-28T01:23:23.961Z,52.20
2018-06-28T01:25:52.827Z,52.30
2018-06-28T01:28:21.773Z,52.40
2018-06-28T01:30:50.348Z,52.50
2018-06-28T01:33:19.297Z,52.60
2018-06-28T01:35:47.866Z,52.60
2018-06-28T01:38:16.472Z,52.80
2018-06-28T01:40:45.306Z,52.90
2018-06-28T01:43:31.923Z,52.80
2018-06-28T01:46:00.937Z,52.80
2018-06-28T01:48:29.651Z,53.00
2018-06-28T01:50:58.775Z,53.20
2018-06-28T01:53:27.958Z,53.10
2018-06-28T01:55:56.769Z,53.10
2018-06-28T01:58:25.371Z,53.30
2018-06-28T02:00:54.016Z,53.40
2018-06-28T02:03:22.617Z,53.40
2018-06-28T02:05:53.068Z,53.30
2018-06-28T02:08:22.023Z,53.30
2018-06-28T02:10:50.688Z,53.10
2018-06-28T02:13:19.721Z,53.20
2018-06-28T02:15:48.389Z,53.30
2018-06-28T02:18:17.151Z,53.10
2018-06-28T02:20:45.780Z,52.90
2018-06-28T02:23:14.372Z,53.00
2018-06-28T02:25:43.047Z,53.20
2018-06-28T02:28:12.463Z,53.10
2018-06-28T02:30:41.596Z,53.20
2018-06-28T02:33:10.899Z,53.10
2018-06-28T02:35:39.453Z,53.20
2018-06-28T02:38:08.389Z,53.40
2018-06-28T02:40:37.007Z,53.40
2018-06-28T02:43:05.758Z,53.40
2018-06-28T02:45:34.398Z,53.20
2018-06-28T02:48:02.970Z,53.20
2018-06-28T02:50:31.910Z,53.20
2018-06-28T02:53:00.560Z,53.50
2018-06-28T02:55:29.303Z,53.50
2018-06-28T02:57:57.828Z,53.50
2018-06-28T03:00:26.488Z,53.50
2018-06-28T03:02:55.088Z,53.60
2018-06-28T03:05:23.646Z,53.60
2018-06-28T03:07:52.227Z,53.70
2018-06-28T03:10:20.752Z,53.60
2018-06-28T03:12:49.387Z,53.70
2018-06-28T03:15:18.805Z,53.70
2018-06-28T03:17:47.376Z,53.60
2018-06-28T03:20:15.969Z,53.80
2018-06-28T03:22:44.667Z,53.90
2018-06-28T03:25:13.472Z,53.80
2018-06-28T03:27:42.248Z,53.80
2018-06-28T03:30:10.848Z,54.00
2018-06-28T03:32:39.736Z,54.10
2018-06-28T03:35:08.558Z,54.20
2018-06-28T03:37:37.445Z,54.30
2018-06-28T03:40:06.612Z,54.40
2018-06-28T03:42:35.281Z,54.40
2018-06-28T03:45:04.579Z,54.30
2018-06-28T03:47:33.300Z,54.20
2018-06-28T03:50:01.819Z,54.20
2018-06-28T03:52:30.459Z,54.40
2018-06-28T03:54:59.271Z,54.40
2018-06-28T03:57:28.026Z,54.50
2018-06-28T03:59:56.901Z,54.60
2018-06-28T04:02:25.458Z,54.90
2018-06-28T04:04:54.073Z,55.00
2018-06-28T04:07:22.750Z,55.10
2018-06-28T04:09:51.796Z,55.10
2018-06-28T04:12:20.435Z,55.10
2018-06-28T04:14:49.142Z,55.00
2018-06-28T04:17:18.682Z,54.90
2018-06-28T04:22:27.704Z,55.20
2018-06-28T04:24:56.854Z,55.10
2018-06-28T04:27:26.561Z,55.20
2018-06-28T04:29:55.163Z,55.30
2018-06-28T04:32:24.464Z,55.10
2018-06-28T04:34:53.369Z,55.60
2018-06-28T04:37:22.308Z,55.00
2018-06-28T04:39:51.455Z,54.90
2018-06-28T04:42:20.399Z,54.90
2018-06-28T04:44:49.893Z,54.80
2018-06-28T04:47:18.509Z,54.60
2018-06-28T04:49:47.617Z,54.70
2018-06-28T04:52:17.484Z,54.60
2018-06-28T04:54:46.017Z,54.50
2018-06-28T04:57:14.669Z,54.50
2018-06-28T04:59:43.328Z,54.60
2018-06-28T05:02:12.478Z,54.60
2018-06-28T05:04:41.479Z,54.60
2018-06-28T05:07:10.310Z,54.50
2018-06-28T05:09:39.476Z,54.20
2018-06-28T05:12:08.410Z,54.20
2018-06-28T05:14:37.643Z,54.60
2018-06-28T05:17:06.444Z,54.60
2018-06-28T05:19:35.541Z,54.50
2018-06-28T05:22:04.187Z,54.40
2018-06-28T05:24:33.528Z,54.20
2018-06-28T05:27:03.054Z,54.40
2018-06-28T05:29:32.437Z,54.30
2018-06-28T05:32:03.772Z,54.10
2018-06-28T05:34:33.014Z,54.10
2018-06-28T05:37:02.158Z,53.80
2018-06-28T05:42:00.477Z,53.50
2018-06-28T05:44:29.307Z,53.60
2018-06-28T05:46:58.503Z,53.60
2018-06-28T05:49:28.114Z,53.80
2018-06-28T05:51:58.321Z,53.50
2018-06-28T05:54:28.116Z,53.50
2018-06-28T05:56:56.576Z,53.50
2018-06-28T05:59:25.760Z,53.30
2018-06-28T06:01:55.103Z,53.20
2018-06-28T06:04:24.608Z,52.90
2018-06-28T06:06:55.909Z,52.80
2018-06-28T06:09:24.902Z,53.00
2018-06-28T06:11:54.446Z,53.00
2018-06-28T06:14:24.679Z,53.10
2018-06-28T06:16:53.779Z,53.40
2018-06-28T06:19:24.317Z,53.00
2018-06-28T06:21:55.132Z,53.10
2018-06-28T06:24:26.684Z,52.90
2018-06-28T06:26:56.068Z,53.20
2018-06-28T06:29:24.839Z,53.40
2018-06-28T06:31:54.075Z,53.60
2018-06-28T06:34:24.094Z,53.50
2018-06-28T06:36:53.513Z,53.20
2018-06-28T06:39:23.175Z,53.00
2018-06-28T06:41:51.808Z,52.90
2018-06-28T06:44:20.599Z,52.80
2018-06-28T06:46:50.521Z,52.40
2018-06-28T06:49:19.359Z,51.90
2018-06-28T06:51:48.865Z,51.50
2018-06-28T06:54:17.952Z,51.20
2018-06-28T06:56:47.008Z,50.70
2018-06-28T06:59:15.972Z,50.30
2018-06-28T07:01:45.480Z,50.10
2018-06-28T07:04:15.812Z,50.00
2018-06-28T07:06:44.664Z,49.60
2018-06-28T07:09:13.927Z,49.50
2018-06-28T07:11:42.639Z,49.40
2018-06-28T07:14:11.781Z,49.40
2018-06-28T07:16:41.189Z,49.10
2018-06-28T07:19:10.598Z,48.90
2018-06-28T07:21:39.575Z,49.00
2018-06-28T07:24:09.248Z,49.10
2018-06-28T07:26:38.047Z,49.40
2018-06-28T07:29:08.155Z,49.50
2018-06-28T07:31:37.761Z,49.70
2018-06-28T07:34:07.044Z,50.10
2018-06-28T07:36:36.016Z,50.40
2018-06-28T07:39:08.549Z,50.40
2018-06-28T07:41:38.606Z,50.50
2018-06-28T07:44:08.194Z,50.40
2018-06-28T07:46:37.722Z,50.60
2018-06-28T07:49:07.170Z,50.70
2018-06-28T07:51:35.912Z,50.80
2018-06-28T07:54:04.621Z,50.80
2018-06-28T07:56:35.252Z,51.20
2018-06-28T07:59:04.025Z,51.30
2018-06-28T08:04:01.360Z,51.20
2018-06-28T08:06:30.190Z,51.10
2018-06-28T08:08:59.697Z,51.00
2018-06-28T08:11:28.535Z,51.50
2018-06-28T08:13:57.132Z,51.50
2018-06-28T08:16:25.990Z,51.40
2018-06-28T08:18:55.631Z,51.40
2018-06-28T08:21:24.455Z,51.40
2018-06-28T08:23:53.926Z,51.20
2018-06-28T08:26:23.813Z,51.20
2018-06-28T08:28:52.403Z,51.40
2018-06-28T08:31:21.296Z,51.60
2018-06-28T08:33:50.452Z,51.70
2018-06-28T08:36:20.611Z,51.70
2018-06-28T08:38:50.218Z,51.40
2018-06-28T08:41:19.433Z,51.30
2018-06-28T08:43:48.375Z,51.20
2018-06-28T08:46:18.403Z,51.00
2018-06-28T08:48:47.343Z,51.00
2018-06-28T08:51:16.252Z,50.80
2018-06-28T08:53:44.801Z,50.50
2018-06-28T08:56:13.735Z,50.30
2018-06-28T08:58:42.731Z,50.30
2018-06-28T09:01:11.641Z,50.10
2018-06-28T09:03:40.399Z,50.00
2018-06-28T09:06:09.438Z,50.00
2018-06-28T09:08:38.719Z,49.60
2018-06-28T09:11:08.178Z,49.60
2018-06-28T09:13:37.351Z,49.80
2018-06-28T09:16:06.843Z,49.80
2018-06-28T09:18:35.517Z,50.00
2018-06-28T09:21:04.152Z,50.30
2018-06-28T09:23:32.709Z,50.10
2018-06-28T09:26:01.373Z,49.70
2018-06-28T09:28:30.048Z,49.80
2018-06-28T09:30:58.646Z,50.20
2018-06-28T09:33:27.655Z,50.60
2018-06-28T09:35:56.509Z,50.50
2018-06-28T09:38:25.017Z,50.60
2018-06-28T09:40:53.593Z,50.80
2018-06-28T09:45:51.063Z,51.00
2018-06-28T09:48:19.840Z,50.90
2018-06-28T09:50:48.647Z,50.90
2018-06-28T09:55:47.499Z,50.70
2018-06-28T09:58:18.802Z,50.60
2018-06-28T10:00:47.790Z,50.50
2018-06-28T10:03:17.803Z,50.30
2018-06-28T10:05:46.795Z,50.60
2018-06-28T10:08:15.875Z,50.10
2018-06-28T10:10:44.635Z,50.30
2018-06-28T10:13:14.300Z,51.30
2018-06-28T10:15:43.579Z,50.60
2018-06-28T10:18:12.755Z,50.50
2018-06-28T10:20:41.251Z,50.80
2018-06-28T10:23:10.291Z,51.10
2018-06-28T10:25:39.028Z,51.10
2018-06-28T10:28:08.239Z,51.10
2018-06-28T10:30:36.888Z,51.30
2018-06-28T10:33:05.612Z,51.40
2018-06-28T10:35:35.185Z,51.30
2018-06-28T10:38:04.681Z,51.40
2018-06-28T10:40:33.823Z,51.30
2018-06-28T10:43:03.239Z,51.30
2018-06-28T10:45:32.104Z,51.30
2018-06-28T10:48:00.984Z,51.10
2018-06-28T10:50:30.268Z,51.10
2018-06-28T10:52:58.952Z,51.00
2018-06-28T10:55:27.517Z,51.00
2018-06-28T10:57:56.244Z,51.10
2018-06-28T11:00:24.868Z,51.10
2018-06-28T11:02:53.910Z,51.10
2018-06-28T11:05:22.989Z,51.10
2018-06-28T11:07:51.993Z,51.20
2018-06-28T11:10:20.786Z,50.90
2018-06-28T11:12:50.270Z,51.00
2018-06-28T11:15:19.127Z,51.40
2018-06-28T11:17:47.925Z,51.50
2018-06-28T11:20:17.525Z,51.80
2018-06-28T11:22:46.213Z,52.10
2018-06-28T11:25:14.852Z,51.90
2018-06-28T11:27:43.545Z,52.20
2018-06-28T11:30:12.633Z,52.20
2018-06-28T11:32:42.122Z,52.30
2018-06-28T11:35:10.836Z,52.20
2018-06-28T11:37:39.715Z,52.20
2018-06-28T11:40:08.466Z,52.10
2018-06-28T11:42:38.208Z,52.30
2018-06-28T11:45:08.824Z,52.30
2018-06-28T11:47:37.643Z,52.30
2018-06-28T11:50:06.286Z,52.30
2018-06-28T11:52:35.839Z,52.80
2018-06-28T11:55:04.827Z,52.80
2018-06-28T11:57:33.672Z,53.00
2018-06-28T12:00:02.705Z,53.20
2018-06-28T12:02:32.138Z,53.50
2018-06-28T12:05:01.867Z,53.20
2018-06-28T12:07:31.951Z,53.20
2018-06-28T12:10:00.778Z,53.30
2018-06-28T12:12:29.311Z,53.20
2018-06-28T12:14:58.560Z,53.10
2018-06-28T12:19:55.847Z,52.60
2018-06-28T12:22:25.059Z,52.50
2018-06-28T12:24:54.303Z,52.20
2018-06-28T12:27:23.188Z,52.20
2018-06-28T12:32:20.281Z,52.20
2018-06-28T12:34:49.052Z,52.10
2018-06-28T12:37:18.701Z,51.90
2018-06-28T12:39:47.988Z,52.00
2018-06-28T12:42:16.634Z,52.10
2018-06-28T12:44:45.269Z,52.10
2018-06-28T12:47:52.697Z,52.10
2018-06-28T12:50:21.608Z,52.20
2018-06-28T12:53:06.564Z,52.40
2018-06-28T12:56:44.152Z,52.30
2018-06-28T12:59:15.129Z,52.40
2018-06-28T13:01:44.631Z,52.60
2018-06-28T13:04:13.347Z,52.90
2018-06-28T13:06:43.164Z,53.20
2018-06-28T13:11:43.015Z,65.30
2018-06-28T13:14:12.005Z,69.20
2018-06-28T13:16:40.688Z,70.10
2018-06-28T13:19:10.179Z,69.30
2018-06-28T13:21:38.829Z,68.90
2018-06-28T13:24:07.986Z,69.50
2018-06-28T13:26:36.888Z,68.80
2018-06-28T13:29:05.571Z,68.90
2018-06-28T13:31:34.276Z,69.60
2018-06-28T13:34:03.657Z,69.10
2018-06-28T13:36:32.332Z,69.70
2018-06-28T13:39:01.681Z,70.10
2018-06-28T13:41:30.821Z,71.20
2018-06-28T13:43:59.739Z,71.10
2018-06-28T13:46:29.127Z,71.40
2018-06-28T13:48:57.775Z,71.80
2018-06-28T13:51:26.409Z,71.60
2018-06-28T13:53:56.915Z,71.20
2018-06-28T13:56:25.831Z,71.60
2018-06-28T13:58:54.829Z,72.00
2018-06-28T14:01:23.622Z,72.70
2018-06-28T14:03:52.331Z,71.90
2018-06-28T14:06:21.079Z,70.10
2018-06-28T14:08:50.495Z,70.90
2018-06-28T14:11:19.163Z,70.00
2018-06-28T14:13:47.865Z,70.00
2018-06-28T14:16:16.500Z,70.10
2018-06-28T14:18:45.155Z,70.50
2018-06-28T14:21:13.860Z,70.50
2018-06-28T14:23:43.238Z,70.40
2018-06-28T14:26:12.303Z,70.40
2018-06-28T14:28:41.077Z,71.70
2018-06-28T14:31:10.356Z,71.40
2018-06-28T14:33:39.073Z,71.40
2018-06-28T14:36:07.705Z,71.50
2018-06-28T14:38:36.503Z,70.70
2018-06-28T14:41:06.081Z,71.00
2018-06-28T14:43:34.789Z,70.80
2018-06-28T14:46:03.452Z,70.80
2018-06-28T14:48:32.208Z,70.80
2018-06-28T14:53:29.481Z,69.00
2018-06-28T14:55:58.024Z,69.10
2018-06-28T14:58:27.890Z,69.60
2018-06-28T15:00:57.307Z,69.10
2018-06-28T15:03:26.056Z,69.70
2018-06-28T15:05:54.678Z,69.40
2018-06-28T15:08:23.364Z,70.10
2018-06-28T15:10:52.439Z,69.50
2018-06-28T15:13:21.555Z,69.80
2018-06-28T15:15:51.010Z,68.90
2018-06-28T15:18:20.006Z,69.20
2018-06-28T15:20:49.035Z,69.60
2018-06-28T15:23:18.064Z,70.00
2018-06-28T15:25:47.147Z,70.10
2018-06-28T15:28:15.842Z,69.20
2018-06-28T15:30:45.418Z,68.50
2018-06-28T15:33:14.731Z,67.10
2018-06-28T15:35:43.473Z,67.90
2018-06-28T15:38:12.372Z,67.10
2018-06-28T15:43:10.116Z,67.80
2018-06-28T15:45:38.752Z,68.40
2018-06-28T15:48:08.181Z,68.40
2018-06-28T15:50:36.833Z,69.20
2018-06-28T15:53:05.538Z,68.10
2018-06-28T15:55:34.504Z,68.30
2018-06-28T15:58:03.783Z,69.00
2018-06-28T16:00:33.078Z,68.50
2018-06-28T16:03:02.067Z,69.00
2018-06-28T16:05:30.794Z,69.60
2018-06-28T16:08:00.124Z,68.70
2018-06-28T16:10:29.021Z,68.90
2018-06-28T16:12:58.938Z,69.20
2018-06-28T16:15:27.761Z,69.90
2018-06-28T16:17:56.671Z,69.60
2018-06-28T16:20:25.627Z,69.40
2018-06-28T16:22:55.242Z,69.60
2018-06-28T16:25:24.331Z,69.70
2018-06-28T16:27:53.167Z,69.50
2018-06-28T16:32:51.195Z,70.20
2018-06-28T16:35:19.954Z,70.40
2018-06-28T16:37:48.603Z,70.40
2018-06-28T16:40:17.296Z,70.60
2018-06-28T16:42:46.108Z,70.60
2018-06-28T16:45:14.902Z,70.70
2018-06-28T16:50:12.916Z,70.80
2018-06-28T16:52:41.912Z,70.90
2018-06-28T16:55:11.007Z,71.10
2018-06-28T16:57:40.342Z,71.50
2018-06-28T17:00:09.402Z,72.00
2018-06-28T17:02:38.275Z,73.20
2018-06-28T17:05:06.898Z,76.80
2018-06-28T17:07:35.631Z,79.90
2018-06-28T17:10:04.985Z,81.40
2018-06-28T17:12:33.603Z,79.70
2018-06-28T17:15:02.340Z,76.20
2018-06-28T17:17:31.555Z,76.40
2018-06-28T17:20:00.382Z,76.60
2018-06-28T17:22:29.917Z,76.70
2018-06-28T17:24:59.076Z,76.30
2018-06-28T17:27:27.722Z,76.50
2018-06-28T17:29:56.797Z,78.20
2018-06-28T17:32:26.404Z,77.90
2018-06-28T17:34:56.675Z,77.60
2018-06-28T17:37:25.469Z,77.60
2018-06-28T17:39:55.878Z,78.70
2018-06-28T17:42:24.632Z,77.80
2018-06-28T17:44:53.643Z,78.20
2018-06-28T17:47:22.399Z,78.50
2018-06-28T17:49:51.492Z,79.10
2018-06-28T17:52:20.436Z,79.40
2018-06-28T17:54:49.051Z,77.80
2018-06-28T17:57:18.743Z,77.70
2018-06-28T17:59:47.457Z,78.00
2018-06-28T18:02:16.760Z,78.20
2018-06-28T18:07:13.685Z,77.40
2018-06-28T18:09:42.992Z,77.80
2018-06-28T18:12:12.266Z,77.20
2018-06-28T18:14:40.853Z,76.70
2018-06-28T18:17:09.863Z,76.40
2018-06-28T18:19:38.700Z,76.50
2018-06-28T18:22:07.715Z,77.20
2018-06-28T18:24:36.839Z,76.70
2018-06-28T18:27:05.540Z,76.30
2018-06-28T18:29:34.928Z,76.30
2018-06-28T18:32:04.232Z,76.50
2018-06-28T18:34:33.055Z,76.50
2018-06-28T18:37:02.027Z,76.30
2018-06-28T18:39:31.401Z,76.00
2018-06-28T18:42:00.345Z,75.90
2018-06-28T18:44:29.287Z,76.30
2018-06-28T18:46:58.309Z,76.30
2018-06-28T18:49:27.135Z,76.50
2018-06-28T18:51:55.962Z,77.80
2018-06-28T18:54:24.985Z,76.20
2018-06-28T18:56:54.008Z,76.30
2018-06-28T18:59:22.706Z,75.80
2018-06-28T19:01:51.336Z,75.80
2018-06-28T19:04:20.419Z,75.70
2018-06-28T19:06:49.294Z,76.00
2018-06-28T19:09:18.798Z,76.90
2018-06-28T19:11:47.444Z,76.10
2018-06-28T19:14:21.807Z,76.10
2018-06-28T19:16:56.125Z,76.10
2018-06-28T19:19:25.191Z,76.40
2018-06-28T19:21:58.902Z,76.50
2018-06-28T19:24:27.999Z,76.70
2018-06-28T19:26:56.827Z,76.30
2018-06-28T19:29:30.682Z,75.90
2018-06-28T19:34:33.199Z,76.10
2018-06-28T19:37:03.020Z,76.00
2018-06-28T19:39:37.403Z,76.00
2018-06-28T19:42:11.662Z,76.10
2018-06-28T19:44:40.574Z,76.20
2018-06-28T19:47:09.238Z,76.50
2018-06-28T19:49:43.378Z,77.10
2018-06-28T19:52:17.280Z,77.10
2018-06-28T19:54:46.247Z,76.90
2018-06-28T19:57:15.038Z,76.80
2018-06-28T19:59:48.019Z,76.40
2018-06-28T20:02:22.478Z,77.00
2018-06-28T20:04:51.235Z,77.30
2018-06-28T20:07:20.743Z,75.80
2018-06-28T20:09:49.423Z,76.60
2018-06-28T20:12:23.410Z,76.70
2018-06-28T20:14:57.658Z,77.10
2018-06-28T20:17:31.408Z,77.30
2018-06-28T20:20:19.255Z,77.10
2018-06-28T20:22:48.078Z,76.70
2018-06-28T20:25:16.778Z,77.10
2018-06-28T20:27:51.062Z,77.10
2018-06-28T20:30:24.908Z,77.00
2018-06-28T20:32:59.197Z,76.60
2018-06-28T20:35:27.852Z,77.00
2018-06-28T20:37:56.608Z,76.00
2018-06-28T20:40:25.224Z,76.20
2018-06-28T20:42:54.046Z,76.30
2018-06-28T20:45:22.614Z,76.20
2018-06-28T20:47:51.446Z,76.30
2018-06-28T20:50:20.146Z,76.40
2018-06-28T20:52:49.043Z,75.80
2018-06-28T20:55:17.636Z,76.40
2018-06-28T20:57:46.195Z,76.90
2018-06-28T21:00:14.811Z,77.10
2018-06-28T21:05:11.666Z,77.10
2018-06-28T21:07:40.295Z,77.10
2018-06-28T21:10:08.997Z,77.80
2018-06-28T21:12:37.624Z,76.80
2018-06-28T21:15:06.284Z,76.70
2018-06-28T21:17:34.884Z,76.80
2018-06-28T21:20:03.922Z,76.20
2018-06-28T21:22:32.507Z,76.40
2018-06-28T21:25:01.164Z,76.10
2018-06-28T21:27:29.960Z,75.70
2018-06-28T21:29:58.639Z,75.80
2018-06-28T21:32:27.187Z,75.90
2018-06-28T21:34:56.004Z,75.70
2018-06-28T21:37:24.720Z,76.40
2018-06-28T21:39:53.653Z,75.80
2018-06-28T21:42:22.294Z,75.90
2018-06-28T21:44:51.520Z,75.30
2018-06-28T21:47:21.340Z,75.90
2018-06-28T21:49:49.941Z,76.40
2018-06-28T21:52:18.563Z,76.80
2018-06-28T21:54:47.142Z,76.80
2018-06-28T21:57:16.220Z,76.80
2018-06-28T21:59:44.883Z,76.80
2018-06-28T22:02:13.533Z,76.90
2018-06-28T22:04:42.343Z,76.80
2018-06-28T22:07:10.942Z,76.80
2018-06-28T22:09:39.738Z,76.90
2018-06-28T22:12:08.774Z,77.10
2018-06-28T22:14:37.529Z,76.70
2018-06-28T22:17:06.437Z,76.70
2018-06-28T22:19:35.276Z,76.40
2018-06-28T22:22:04.291Z,76.50
2018-06-28T22:24:33.160Z,76.00
2018-06-28T22:27:01.748Z,75.70
2018-06-28T22:29:30.379Z,76.30
2018-06-28T22:31:58.876Z,76.40
2018-06-28T22:34:27.858Z,76.40
2018-06-28T22:36:56.445Z,76.50
2018-06-28T22:39:25.074Z,76.30
2018-06-28T22:41:53.671Z,76.20
2018-06-28T22:44:22.202Z,76.10
2018-06-28T22:46:50.747Z,75.40
2018-06-28T22:49:19.271Z,75.20
2018-06-28T22:51:48.967Z,74.80
2018-06-28T22:54:17.531Z,75.00
2018-06-28T22:56:46.151Z,76.00
2018-06-28T22:59:14.746Z,75.30
2018-06-28T23:01:43.474Z,75.60
2018-06-28T23:04:12.163Z,76.10
2018-06-28T23:06:40.844Z,76.40
2018-06-28T23:09:09.672Z,76.50
2018-06-28T23:11:38.635Z,76.60
2018-06-28T23:14:07.367Z,76.50
2018-06-28T23:16:35.995Z,76.50
2018-06-28T23:19:04.655Z,76.30
2018-06-28T23:21:34.294Z,76.50
2018-06-28T23:24:02.962Z,76.60
2018-06-28T23:26:31.662Z,76.20
2018-06-28T23:29:00.355Z,76.50
2018-06-28T23:31:28.981Z,75.90
2018-06-28T23:36:26.116Z,76.50
2018-06-28T23:38:54.779Z,76.30
2018-06-28T23:41:23.574Z,76.50
2018-06-28T23:43:52.487Z,76.30
2018-06-28T23:46:21.047Z,76.30
2018-06-28T23:48:49.762Z,76.40
2018-06-28T23:51:18.285Z,76.40
2018-06-28T23:53:46.916Z,76.30
2018-06-28T23:56:15.488Z,76.60
2018-06-28T23:58:44.071Z,76.50
